Saturday, May 26, 2018, 2:18 AM EDT
Back to Local

KHPN, White Plains Westchester

Location: Greenwich, NY, United States Lat: 41.067
Local Time: 2:18 AM EDT ( 6:18 GMT) Lon: -73.7
Time Zone: US/Eastern Elev: 439 ft

Show me the last for .
Show Decoded

2018-05-26 01:56 METAR KHPN 260556Z 26005KT 10SM CLR 23/17 A2982 RMK AO2 SLP092 T02330167 10278
                 20233 58006 =
2018-05-26 00:56 METAR KHPN 260456Z 22005KT 10SM CLR 24/16 A2984 RMK AO2 SLP097 T02390156
                 402940144 =
2018-05-25 23:56 METAR KHPN 260356Z 24007KT 10SM CLR 24/15 A2984 RMK AO2 SLP098 T02440150 =
2018-05-25 22:56 METAR KHPN 260256Z 00000KT 10SM CLR 25/15 A2984 RMK AO2 SLP098 T02500150 50004 =
2018-05-25 21:56 METAR KHPN 260156Z VRB03KT 10SM CLR 26/14 A2984 RMK AO2 SLP099 T02560139 =
2018-05-25 20:56 METAR KHPN 260056Z VRB03KT 10SM CLR 26/12 A2983 RMK AO2 SLP095 T02610117 =
2018-05-25 19:56 METAR KHPN 252356Z VRB04KT 10SM CLR 28/10 A2983 RMK AO2 SLP094 T02780100 10294
                 20278 55004 =
2018-05-25 18:56 METAR KHPN 252256Z 25005KT 10SM CLR 28/11 A2982 RMK AO2 SLP092 T02830106 =
2018-05-25 17:56 METAR KHPN 252156Z 22009KT 180V250 10SM CLR 29/12 A2983 RMK AO2 SLP095 T02890122
                 =
2018-05-25 16:56 METAR KHPN 252056Z 21008G17KT 10SM CLR 29/10 A2984 RMK AO2 SLP100 T02890100
                 58022 =
2018-05-25 15:56 METAR KHPN 251956Z 22008KT 170V270 10SM CLR 29/09 A2986 RMK AO2 SLP108 T02890094
                 =
2018-05-25 14:56 METAR KHPN 251856Z 22008G14KT 10SM CLR 29/08 A2989 RMK AO2 SLP116 T02890078 =
2018-05-25 13:56 METAR KHPN 251756Z 22009KT 190V270 10SM CLR 29/09 A2991 RMK AO2 SLP122 T02890089
                 10294 20206 56026 =
2018-05-25 12:56 METAR KHPN 251656Z 26009G17KT 10SM FEW080 28/09 A2993 RMK AO2 SLP131 T02830089 =
2018-05-25 11:56 METAR KHPN 251556Z 28008KT 10SM CLR 28/11 A2996 RMK AO2 SLP139 T02780111 =
2018-05-25 10:56 METAR KHPN 251456Z 27007KT 240V300 10SM CLR 26/11 A2999 RMK AO2 SLP150 T02610111
                 58015 =
2018-05-25 09:56 METAR KHPN 251356Z 26008KT 10SM CLR 24/11 A3000 RMK AO2 SLP156 T02440106 =
2018-05-25 08:56 METAR KHPN 251256Z 27008KT 10SM CLR 23/09 A3002 RMK AO2 SLP162 T02280094 =
2018-05-25 07:56 METAR KHPN 251156Z 26005KT 10SM CLR 21/10 A3003 RMK AO2 SLP165 T02060100 10206
                 20144 58002 =
2018-05-25 06:56 METAR KHPN 251056Z 27005KT 10SM CLR 18/11 A3004 RMK AO2 SLP168 T01780106 =
2018-05-25 05:56 METAR KHPN 250956Z 28004KT 10SM CLR 16/10 A3004 RMK AO2 SLP169 T01610100 =
2018-05-25 04:56 METAR KHPN 250856Z 28004KT 10SM CLR 15/09 A3004 RMK AO2 SLP168 T01500094 56009 =
2018-05-25 03:56 METAR KHPN 250756Z 28004KT 10SM CLR 14/10 A3005 RMK AO2 SLP170 T01440100 =
2018-05-25 02:56 METAR KHPN 250656Z 28003KT 10SM CLR 17/08 A3005 RMK AO2 SLP172 T01670083 =

Support USWX by starting your Amazon purchase here.